KFFM

Fergus Falls Municipal-Einar Mickelson Field Airport

Fergus Falls, Minnesota, USA
METAR KFFM 172215Z AUTO 27003KT 10SM CLR 25/18 A3009 RMK AO2
Observed Flight Rules
Aug-17 @ 22:15 UTC (22 minutes ago) Visual Flight Rules
Wind Visibility Clouds
270° at 3 knots 10 miles
  • Clear skies
Temperatures Readings
Current 25°C / 77°F
Dewpoint 18°C / 64°F
Humidity 65%
Altimeter 30.09" Hg
Pressure 1019 hPa
Elevation 361
METAR KFFM 172215Z AUTO 27003KT 10SM CLR 25/18 A3009 RMK AO2
Observed Flight Rules
Aug-17 @ 22:15 UTC
(22 minutes ago)
VFR
Wind Visibility
270° at 3 knots 10 miles
Clouds
  • Clear skies
Temperature Dewpoint
25°C / 77°F 18°C / 64°F
Humidity Altimeter Pressure
65% 30.09" Hg 1019 hPa